sensor_id;sensor_type;location;lat;lon;timestamp;P1;durP1;ratioP1;P2;durP2;ratioP2
29688;SDS011;16600;47.444;8.334;2023-12-29T00:01:53;7.38;;;6.10;;
29688;SDS011;16600;47.444;8.334;2023-12-29T00:04:23;10.23;;;6.75;;
29688;SDS011;16600;47.444;8.334;2023-12-29T00:06:49;7.85;;;6.10;;
29688;SDS011;16600;47.444;8.334;2023-12-29T00:11:41;7.35;;;6.40;;
29688;SDS011;16600;47.444;8.334;2023-12-29T00:14:07;6.40;;;5.70;;
29688;SDS011;16600;47.444;8.334;2023-12-29T00:16:33;8.20;;;7.32;;
29688;SDS011;16600;47.444;8.334;2023-12-29T00:18:59;7.60;;;5.70;;
29688;SDS011;16600;47.444;8.334;2023-12-29T00:21:29;10.57;;;5.32;;
29688;SDS011;16600;47.444;8.334;2023-12-29T00:23:56;7.28;;;6.00;;
29688;SDS011;16600;47.444;8.334;2023-12-29T00:26:22;8.57;;;6.10;;
29688;SDS011;16600;47.444;8.334;2023-12-29T00:28:55;6.75;;;6.13;;
29688;SDS011;16600;47.444;8.334;2023-12-29T00:31:21;10.23;;;6.13;;
29688;SDS011;16600;47.444;8.334;2023-12-29T00:33:47;6.65;;;5.97;;
29688;SDS011;16600;47.444;8.334;2023-12-29T00:36:19;9.38;;;5.43;;
29688;SDS011;16600;47.444;8.334;2023-12-29T00:38:45;6.53;;;5.90;;
29688;SDS011;16600;47.444;8.334;2023-12-29T00:41:12;8.07;;;5.63;;
29688;SDS011;16600;47.444;8.334;2023-12-29T00:43:38;8.75;;;6.68;;
29688;SDS011;16600;47.444;8.334;2023-12-29T00:46:04;13.55;;;5.80;;
29688;SDS011;16600;47.444;8.334;2023-12-29T00:48:33;8.35;;;5.63;;
29688;SDS011;16600;47.444;8.334;2023-12-29T00:51:02;8.63;;;6.55;;
29688;SDS011;16600;47.444;8.334;2023-12-29T00:53:34;9.25;;;6.60;;
29688;SDS011;16600;47.444;8.334;2023-12-29T00:56:00;11.43;;;6.03;;
29688;SDS011;16600;47.444;8.334;2023-12-29T00:58:28;8.23;;;5.88;;
29688;SDS011;16600;47.444;8.334;2023-12-29T05:21:17;13.23;;;11.70;;
29688;SDS011;16600;47.444;8.334;2023-12-29T05:23:44;11.15;;;10.02;;
29688;SDS011;16600;47.444;8.334;2023-12-29T05:26:16;14.65;;;10.57;;
29688;SDS011;16600;47.444;8.334;2023-12-29T05:28:42;12.27;;;10.98;;
29688;SDS011;16600;47.444;8.334;2023-12-29T05:31:11;14.77;;;11.65;;
29688;SDS011;16600;47.444;8.334;2023-12-29T05:33:37;12.65;;;11.40;;
29688;SDS011;16600;47.444;8.334;2023-12-29T05:36:09;13.80;;;11.27;;
29688;SDS011;16600;47.444;8.334;2023-12-29T05:38:39;10.98;;;9.88;;
29688;SDS011;16600;47.444;8.334;2023-12-29T05:41:07;14.68;;;10.35;;
29688;SDS011;16600;47.444;8.334;2023-12-29T05:43:33;15.90;;;10.98;;
29688;SDS011;16600;47.444;8.334;2023-12-29T05:46:00;11.40;;;10.25;;
29688;SDS011;16600;47.444;8.334;2023-12-29T05:48:30;12.43;;;10.55;;
29688;SDS011;16600;47.444;8.334;2023-12-29T05:51:02;13.35;;;10.93;;
29688;SDS011;16600;47.444;8.334;2023-12-29T05:53:31;11.63;;;9.77;;
29688;SDS011;16600;47.444;8.334;2023-12-29T05:55:57;14.90;;;10.45;;
29688;SDS011;16600;47.444;8.334;2023-12-29T05:58:23;16.25;;;9.48;;
29688;SDS011;16600;47.444;8.334;2023-12-29T06:00:49;11.55;;;10.10;;
29688;SDS011;16600;47.444;8.334;2023-12-29T06:03:15;12.07;;;8.85;;
29688;SDS011;16600;47.444;8.334;2023-12-29T06:05:42;13.05;;;9.38;;
29688;SDS011;16600;47.444;8.334;2023-12-29T06:08:08;10.35;;;8.43;;
29688;SDS011;16600;47.444;8.334;2023-12-29T06:13:01;11.13;;;10.00;;
29688;SDS011;16600;47.444;8.334;2023-12-29T06:15:28;9.93;;;8.20;;
29688;SDS011;16600;47.444;8.334;2023-12-29T06:17:54;9.93;;;7.43;;
29688;SDS011;16600;47.444;8.334;2023-12-29T06:20:23;10.35;;;9.20;;
29688;SDS011;16600;47.444;8.334;2023-12-29T06:22:50;13.38;;;9.50;;
29688;SDS011;16600;47.444;8.334;2023-12-29T06:25:16;9.38;;;7.03;;
29688;SDS011;16600;47.444;8.334;2023-12-29T06:27:45;8.60;;;7.70;;
29688;SDS011;16600;47.444;8.334;2023-12-29T06:30:14;8.52;;;7.72;;
29688;SDS011;16600;47.444;8.334;2023-12-29T06:32:40;9.27;;;8.32;;
29688;SDS011;16600;47.444;8.334;2023-12-29T06:35:12;7.45;;;6.65;;
29688;SDS011;16600;47.444;8.334;2023-12-29T06:37:39;10.57;;;7.70;;
29688;SDS011;16600;47.444;8.334;2023-12-29T06:40:07;6.72;;;6.13;;
29688;SDS011;16600;47.444;8.334;2023-12-29T06:42:33;6.90;;;6.20;;
29688;SDS011;16600;47.444;8.334;2023-12-29T06:44:59;9.77;;;6.40;;
29688;SDS011;16600;47.444;8.334;2023-12-29T06:47:25;7.13;;;6.22;;
29688;SDS011;16600;47.444;8.334;2023-12-29T06:49:52;8.48;;;6.78;;
29688;SDS011;16600;47.444;8.334;2023-12-29T06:52:18;8.15;;;6.72;;
29688;SDS011;16600;47.444;8.334;2023-12-29T06:54:44;15.70;;;7.30;;
29688;SDS011;16600;47.444;8.334;2023-12-29T06:57:10;8.52;;;7.70;;
29688;SDS011;16600;47.444;8.334;2023-12-29T06:59:40;13.15;;;6.72;;
29688;SDS011;16600;47.444;8.334;2023-12-29T07:47:07;8.55;;;7.55;;
29688;SDS011;16600;47.444;8.334;2023-12-29T07:49:33;8.88;;;6.85;;
29688;SDS011;16600;47.444;8.334;2023-12-29T07:51:59;9.88;;;7.20;;
29688;SDS011;16600;47.444;8.334;2023-12-29T07:54:25;7.63;;;6.82;;
29688;SDS011;16600;47.444;8.334;2023-12-29T07:56:55;7.82;;;6.38;;
29688;SDS011;16600;47.444;8.334;2023-12-29T07:59:21;7.15;;;5.68;;
29688;SDS011;16600;47.444;8.334;2023-12-29T08:01:48;6.72;;;5.55;;
29688;SDS011;16600;47.444;8.334;2023-12-29T08:04:14;6.60;;;5.90;;
29688;SDS011;16600;47.444;8.334;2023-12-29T08:06:43;6.85;;;5.55;;
29688;SDS011;16600;47.444;8.334;2023-12-29T08:09:10;5.97;;;5.13;;
29688;SDS011;16600;47.444;8.334;2023-12-29T08:11:36;7.43;;;6.35;;
29688;SDS011;16600;47.444;8.334;2023-12-29T08:14:06;7.13;;;6.43;;
29688;SDS011;16600;47.444;8.334;2023-12-29T08:16:42;7.85;;;6.28;;
29688;SDS011;16600;47.444;8.334;2023-12-29T08:19:08;8.43;;;6.38;;
29688;SDS011;16600;47.444;8.334;2023-12-29T08:21:38;6.38;;;5.78;;
29688;SDS011;16600;47.444;8.334;2023-12-29T08:24:07;6.88;;;5.55;;
29688;SDS011;16600;47.444;8.334;2023-12-29T08:26:43;9.77;;;6.90;;
29688;SDS011;16600;47.444;8.334;2023-12-29T08:29:09;7.75;;;5.88;;
29688;SDS011;16600;47.444;8.334;2023-12-29T08:31:35;8.60;;;6.28;;
29688;SDS011;16600;47.444;8.334;2023-12-29T08:34:01;7.20;;;5.93;;
29688;SDS011;16600;47.444;8.334;2023-12-29T08:38:53;7.32;;;5.85;;
29688;SDS011;16600;47.444;8.334;2023-12-29T08:41:19;8.00;;;5.40;;
29688;SDS011;16600;47.444;8.334;2023-12-29T08:43:48;7.07;;;5.15;;
29688;SDS011;16600;47.444;8.334;2023-12-29T08:46:17;7.35;;;5.55;;
29688;SDS011;16600;47.444;8.334;2023-12-29T08:48:44;5.38;;;4.78;;
29688;SDS011;16600;47.444;8.334;2023-12-29T08:51:13;6.03;;;4.90;;
29688;SDS011;16600;47.444;8.334;2023-12-29T08:53:39;6.55;;;5.65;;
29688;SDS011;16600;47.444;8.334;2023-12-29T08:56:05;5.47;;;4.20;;
29688;SDS011;16600;47.444;8.334;2023-12-29T08:58:31;6.03;;;5.20;;
29688;SDS011;16600;47.444;8.334;2023-12-29T17:26:27;1.50;;;1.40;;
29688;SDS011;16600;47.444;8.334;2023-12-29T17:28:57;3.40;;;2.97;;
29688;SDS011;16600;47.444;8.334;2023-12-29T17:31:23;3.33;;;1.90;;
29688;SDS011;16600;47.444;8.334;2023-12-29T17:33:49;1.85;;;1.70;;
29688;SDS011;16600;47.444;8.334;2023-12-29T17:36:19;4.05;;;1.70;;
29688;SDS011;16600;47.444;8.334;2023-12-29T17:38:45;1.55;;;1.45;;
29688;SDS011;16600;47.444;8.334;2023-12-29T17:41:15;1.50;;;1.40;;
29688;SDS011;16600;47.444;8.334;2023-12-29T17:43:42;1.80;;;1.70;;
29688;SDS011;16600;47.444;8.334;2023-12-29T17:46:11;2.78;;;1.80;;
29688;SDS011;16600;47.444;8.334;2023-12-29T17:48:37;4.03;;;3.53;;
29688;SDS011;16600;47.444;8.334;2023-12-29T17:51:03;7.25;;;3.55;;
29688;SDS011;16600;47.444;8.334;2023-12-29T17:53:29;2.40;;;2.00;;
29688;SDS011;16600;47.444;8.334;2023-12-29T17:55:55;2.30;;;2.10;;
29688;SDS011;16600;47.444;8.334;2023-12-29T18:00:50;2.92;;;2.60;;
29688;SDS011;16600;47.444;8.334;2023-12-29T18:03:17;3.55;;;2.83;;
29688;SDS011;16600;47.444;8.334;2023-12-29T18:05:45;5.45;;;3.78;;
29688;SDS011;16600;47.444;8.334;2023-12-29T18:08:17;4.10;;;3.38;;
29688;SDS011;16600;47.444;8.334;2023-12-29T18:10:44;3.72;;;3.35;;
29688;SDS011;16600;47.444;8.334;2023-12-29T18:13:12;4.57;;;3.15;;
29688;SDS011;16600;47.444;8.334;2023-12-29T18:15:39;3.10;;;2.80;;
29688;SDS011;16600;47.444;8.334;2023-12-29T18:18:06;3.50;;;3.20;;
29688;SDS011;16600;47.444;8.334;2023-12-29T18:20:35;1.88;;;1.77;;
29688;SDS011;16600;47.444;8.334;2023-12-29T18:23:01;2.28;;;2.05;;
29688;SDS011;16600;47.444;8.334;2023-12-29T18:25:32;2.30;;;2.10;;
29688;SDS011;16600;47.444;8.334;2023-12-29T18:27:59;7.35;;;2.38;;
29688;SDS011;16600;47.444;8.334;2023-12-29T18:30:26;3.20;;;2.28;;
29688;SDS011;16600;47.444;8.334;2023-12-29T18:32:52;2.20;;;2.00;;
29688;SDS011;16600;47.444;8.334;2023-12-29T18:35:18;4.10;;;2.20;;
29688;SDS011;16600;47.444;8.334;2023-12-29T18:37:44;1.95;;;1.75;;
29688;SDS011;16600;47.444;8.334;2023-12-29T18:40:13;2.88;;;2.22;;
29688;SDS011;16600;47.444;8.334;2023-12-29T18:42:43;7.45;;;2.22;;
29688;SDS011;16600;47.444;8.334;2023-12-29T18:47:39;2.30;;;2.10;;
29688;SDS011;16600;47.444;8.334;2023-12-29T18:50:04;3.92;;;2.80;;
29688;SDS011;16600;47.444;8.334;2023-12-29T18:54:56;3.13;;;2.83;;
29688;SDS011;16600;47.444;8.334;2023-12-29T18:57:22;3.50;;;2.90;;
29688;SDS011;16600;47.444;8.334;2023-12-29T18:59:51;3.95;;;3.47;;
29688;SDS011;16600;47.444;8.334;2023-12-29T21:18:42;6.63;;;4.50;;
29688;SDS011;16600;47.444;8.334;2023-12-29T21:21:09;9.27;;;4.63;;
29688;SDS011;16600;47.444;8.334;2023-12-29T21:23:36;5.95;;;4.40;;
29688;SDS011;16600;47.444;8.334;2023-12-29T21:26:03;6.10;;;5.50;;
29688;SDS011;16600;47.444;8.334;2023-12-29T21:28:29;12.77;;;5.25;;
29688;SDS011;16600;47.444;8.334;2023-12-29T21:30:56;6.07;;;4.82;;
29688;SDS011;16600;47.444;8.334;2023-12-29T21:33:22;5.90;;;5.32;;
29688;SDS011;16600;47.444;8.334;2023-12-29T21:35:48;8.85;;;5.63;;
29688;SDS011;16600;47.444;8.334;2023-12-29T21:38:18;6.00;;;5.40;;
29688;SDS011;16600;47.444;8.334;2023-12-29T21:40:45;6.05;;;5.00;;
29688;SDS011;16600;47.444;8.334;2023-12-29T21:43:11;5.70;;;5.20;;
29688;SDS011;16600;47.444;8.334;2023-12-29T21:45:37;6.72;;;6.05;;
29688;SDS011;16600;47.444;8.334;2023-12-29T21:48:03;6.93;;;5.55;;
29688;SDS011;16600;47.444;8.334;2023-12-29T21:50:30;6.25;;;5.25;;
29688;SDS011;16600;47.444;8.334;2023-12-29T21:52:56;6.75;;;6.15;;
29688;SDS011;16600;47.444;8.334;2023-12-29T21:55:23;5.85;;;5.32;;
29688;SDS011;16600;47.444;8.334;2023-12-29T21:57:49;6.38;;;5.78;;
29688;SDS011;16600;47.444;8.334;2023-12-29T22:00:15;7.15;;;6.45;;
29688;SDS011;16600;47.444;8.334;2023-12-29T22:02:45;6.70;;;5.97;;
29688;SDS011;16600;47.444;8.334;2023-12-29T22:05:11;8.80;;;5.93;;
29688;SDS011;16600;47.444;8.334;2023-12-29T22:07:37;6.20;;;5.60;;
29688;SDS011;16600;47.444;8.334;2023-12-29T22:10:10;7.70;;;5.60;;
29688;SDS011;16600;47.444;8.334;2023-12-29T22:12:35;6.70;;;6.10;;
29688;SDS011;16600;47.444;8.334;2023-12-29T22:15:01;6.43;;;5.70;;
29688;SDS011;16600;47.444;8.334;2023-12-29T22:17:28;10.63;;;6.60;;
29688;SDS011;16600;47.444;8.334;2023-12-29T22:19:54;7.10;;;6.47;;
29688;SDS011;16600;47.444;8.334;2023-12-29T22:22:20;6.65;;;5.88;;
29688;SDS011;16600;47.444;8.334;2023-12-29T22:24:46;7.43;;;6.72;;
29688;SDS011;16600;47.444;8.334;2023-12-29T22:27:12;8.63;;;6.80;;
29688;SDS011;16600;47.444;8.334;2023-12-29T22:29:40;7.50;;;6.68;;
29688;SDS011;16600;47.444;8.334;2023-12-29T22:32:06;7.32;;;6.13;;
29688;SDS011;16600;47.444;8.334;2023-12-29T22:36:57;6.93;;;5.95;;
29688;SDS011;16600;47.444;8.334;2023-12-29T22:41:49;7.60;;;6.68;;
29688;SDS011;16600;47.444;8.334;2023-12-29T22:44:15;11.15;;;6.85;;
29688;SDS011;16600;47.444;8.334;2023-12-29T22:46:41;10.25;;;7.28;;
29688;SDS011;16600;47.444;8.334;2023-12-29T22:49:07;6.97;;;6.25;;
29688;SDS011;16600;47.444;8.334;2023-12-29T22:53:59;7.50;;;6.47;;
29688;SDS011;16600;47.444;8.334;2023-12-29T22:56:25;10.55;;;7.85;;
29688;SDS011;16600;47.444;8.334;2023-12-29T22:58:54;8.93;;;7.30;;
